sensor_id;sensor_type;location;lat;lon;timestamp;temperature;humidity
7234;DHT22;3658;47.992;10.158;2023-03-14T00:00:49;21.80;37.00
7234;DHT22;3658;47.992;10.158;2023-03-14T00:03:16;21.80;37.00
7234;DHT22;3658;47.992;10.158;2023-03-14T00:05:43;21.80;36.90
7234;DHT22;3658;47.992;10.158;2023-03-14T00:08:11;21.80;36.90
7234;DHT22;3658;47.992;10.158;2023-03-14T00:10:38;21.80;36.80
7234;DHT22;3658;47.992;10.158;2023-03-14T00:13:05;21.80;36.70
7234;DHT22;3658;47.992;10.158;2023-03-14T00:15:33;21.80;36.70
7234;DHT22;3658;47.992;10.158;2023-03-14T00:18:00;21.80;36.70
7234;DHT22;3658;47.992;10.158;2023-03-14T00:20:27;21.80;36.70
7234;DHT22;3658;47.992;10.158;2023-03-14T00:22:54;21.80;36.70
7234;DHT22;3658;47.992;10.158;2023-03-14T00:25:22;21.80;36.60
7234;DHT22;3658;47.992;10.158;2023-03-14T00:27:50;21.80;36.60
7234;DHT22;3658;47.992;10.158;2023-03-14T00:30:18;21.80;36.60
7234;DHT22;3658;47.992;10.158;2023-03-14T00:32:45;21.80;36.60
7234;DHT22;3658;47.992;10.158;2023-03-14T00:35:12;21.80;36.50
7234;DHT22;3658;47.992;10.158;2023-03-14T00:37:39;21.80;36.50
7234;DHT22;3658;47.992;10.158;2023-03-14T00:40:07;21.80;36.60
7234;DHT22;3658;47.992;10.158;2023-03-14T00:42:36;21.70;36.40
7234;DHT22;3658;47.992;10.158;2023-03-14T00:45:03;21.70;36.40
7234;DHT22;3658;47.992;10.158;2023-03-14T00:47:30;21.70;36.50
7234;DHT22;3658;47.992;10.158;2023-03-14T00:49:57;21.70;36.50
7234;DHT22;3658;47.992;10.158;2023-03-14T00:52:24;21.70;36.50
7234;DHT22;3658;47.992;10.158;2023-03-14T00:54:51;21.70;36.40
7234;DHT22;3658;47.992;10.158;2023-03-14T00:57:18;21.70;36.40
7234;DHT22;3658;47.992;10.158;2023-03-14T00:59:46;21.70;36.40
7234;DHT22;3658;47.992;10.158;2023-03-14T01:02:13;21.70;36.40
7234;DHT22;3658;47.992;10.158;2023-03-14T01:04:40;21.70;36.40
7234;DHT22;3658;47.992;10.158;2023-03-14T01:07:08;21.70;36.40
7234;DHT22;3658;47.992;10.158;2023-03-14T01:09:35;21.70;36.40
7234;DHT22;3658;47.992;10.158;2023-03-14T01:12:02;21.60;36.40
7234;DHT22;3658;47.992;10.158;2023-03-14T01:14:29;21.60;36.30
7234;DHT22;3658;47.992;10.158;2023-03-14T01:16:58;21.60;36.30
7234;DHT22;3658;47.992;10.158;2023-03-14T01:19:26;21.60;36.40
7234;DHT22;3658;47.992;10.158;2023-03-14T01:21:55;21.60;36.30
7234;DHT22;3658;47.992;10.158;2023-03-14T01:24:22;21.60;36.30
7234;DHT22;3658;47.992;10.158;2023-03-14T01:26:49;21.60;36.30
7234;DHT22;3658;47.992;10.158;2023-03-14T01:29:16;21.60;36.30
7234;DHT22;3658;47.992;10.158;2023-03-14T01:31:43;21.60;36.20
7234;DHT22;3658;47.992;10.158;2023-03-14T01:34:11;21.60;36.90
7234;DHT22;3658;47.992;10.158;2023-03-14T01:36:38;21.60;36.30
7234;DHT22;3658;47.992;10.158;2023-03-14T01:39:05;21.60;36.30
7234;DHT22;3658;47.992;10.158;2023-03-14T01:41:33;21.60;36.30
7234;DHT22;3658;47.992;10.158;2023-03-14T01:44:00;21.60;36.30
7234;DHT22;3658;47.992;10.158;2023-03-14T01:46:38;21.60;36.30
7234;DHT22;3658;47.992;10.158;2023-03-14T01:49:22;21.60;36.20
7234;DHT22;3658;47.992;10.158;2023-03-14T01:51:54;21.60;36.30
7234;DHT22;3658;47.992;10.158;2023-03-14T01:54:25;21.60;36.20
7234;DHT22;3658;47.992;10.158;2023-03-14T01:56:57;21.60;36.30
7234;DHT22;3658;47.992;10.158;2023-03-14T01:59:27;21.50;36.20
7234;DHT22;3658;47.992;10.158;2023-03-14T02:01:56;21.50;36.20
7234;DHT22;3658;47.992;10.158;2023-03-14T02:04:28;21.50;36.10
7234;DHT22;3658;47.992;10.158;2023-03-14T02:07:00;21.50;36.10
7234;DHT22;3658;47.992;10.158;2023-03-14T02:09:28;21.50;36.10
7234;DHT22;3658;47.992;10.158;2023-03-14T02:11:56;21.50;36.20
7234;DHT22;3658;47.992;10.158;2023-03-14T02:14:30;21.50;36.20
7234;DHT22;3658;47.992;10.158;2023-03-14T02:16:59;21.50;36.10
7234;DHT22;3658;47.992;10.158;2023-03-14T02:19:35;21.50;36.10
7234;DHT22;3658;47.992;10.158;2023-03-14T02:22:08;21.50;36.20
7234;DHT22;3658;47.992;10.158;2023-03-14T02:24:41;21.50;36.10
7234;DHT22;3658;47.992;10.158;2023-03-14T02:27:11;21.50;36.10
7234;DHT22;3658;47.992;10.158;2023-03-14T02:29:45;21.50;36.10
7234;DHT22;3658;47.992;10.158;2023-03-14T02:32:13;21.50;36.80
7234;DHT22;3658;47.992;10.158;2023-03-14T02:34:42;21.50;36.10
7234;DHT22;3658;47.992;10.158;2023-03-14T02:37:10;21.50;36.10
7234;DHT22;3658;47.992;10.158;2023-03-14T02:39:40;21.50;36.10
7234;DHT22;3658;47.992;10.158;2023-03-14T02:42:08;21.50;36.20
7234;DHT22;3658;47.992;10.158;2023-03-14T02:44:45;21.50;36.10
7234;DHT22;3658;47.992;10.158;2023-03-14T02:47:13;21.50;36.10
7234;DHT22;3658;47.992;10.158;2023-03-14T02:49:40;21.50;36.10
7234;DHT22;3658;47.992;10.158;2023-03-14T02:52:08;21.50;36.10
7234;DHT22;3658;47.992;10.158;2023-03-14T02:54:35;21.50;36.10
7234;DHT22;3658;47.992;10.158;2023-03-14T02:57:03;21.50;36.10
7234;DHT22;3658;47.992;10.158;2023-03-14T02:59:30;21.40;36.00
7234;DHT22;3658;47.992;10.158;2023-03-14T03:01:59;21.50;36.10
7234;DHT22;3658;47.992;10.158;2023-03-14T03:04:26;21.50;36.00
7234;DHT22;3658;47.992;10.158;2023-03-14T03:06:53;21.50;36.70
7234;DHT22;3658;47.992;10.158;2023-03-14T03:09:20;21.40;35.90
7234;DHT22;3658;47.992;10.158;2023-03-14T03:11:47;21.50;36.00
7234;DHT22;3658;47.992;10.158;2023-03-14T03:14:14;21.40;35.90
7234;DHT22;3658;47.992;10.158;2023-03-14T03:16:41;21.40;35.90
7234;DHT22;3658;47.992;10.158;2023-03-14T03:19:09;21.50;36.00
7234;DHT22;3658;47.992;10.158;2023-03-14T03:21:36;21.40;36.00
7234;DHT22;3658;47.992;10.158;2023-03-14T03:24:03;21.40;36.00
7234;DHT22;3658;47.992;10.158;2023-03-14T03:26:30;21.40;36.00
7234;DHT22;3658;47.992;10.158;2023-03-14T03:28:57;21.40;35.90
7234;DHT22;3658;47.992;10.158;2023-03-14T03:31:24;21.40;35.90
7234;DHT22;3658;47.992;10.158;2023-03-14T03:33:50;21.40;35.90
7234;DHT22;3658;47.992;10.158;2023-03-14T03:36:22;21.40;35.90
7234;DHT22;3658;47.992;10.158;2023-03-14T03:38:49;21.40;35.90
7234;DHT22;3658;47.992;10.158;2023-03-14T03:41:16;21.40;35.90
7234;DHT22;3658;47.992;10.158;2023-03-14T03:43:43;21.40;35.90
7234;DHT22;3658;47.992;10.158;2023-03-14T03:46:10;21.40;35.90
7234;DHT22;3658;47.992;10.158;2023-03-14T03:48:37;21.40;35.90
7234;DHT22;3658;47.992;10.158;2023-03-14T03:51:05;21.40;35.90
7234;DHT22;3658;47.992;10.158;2023-03-14T03:53:33;21.40;35.90
7234;DHT22;3658;47.992;10.158;2023-03-14T03:56:00;21.40;35.90
7234;DHT22;3658;47.992;10.158;2023-03-14T03:58:27;21.40;35.90
7234;DHT22;3658;47.992;10.158;2023-03-14T04:00:54;21.40;35.90
7234;DHT22;3658;47.992;10.158;2023-03-14T04:03:21;21.40;35.90
7234;DHT22;3658;47.992;10.158;2023-03-14T04:05:58;21.40;35.90
7234;DHT22;3658;47.992;10.158;2023-03-14T04:08:25;21.40;35.90
7234;DHT22;3658;47.992;10.158;2023-03-14T04:10:56;21.40;35.80
7234;DHT22;3658;47.992;10.158;2023-03-14T04:13:23;21.40;35.90
7234;DHT22;3658;47.992;10.158;2023-03-14T04:15:50;21.40;35.80
7234;DHT22;3658;47.992;10.158;2023-03-14T04:18:17;21.40;35.80
7234;DHT22;3658;47.992;10.158;2023-03-14T04:20:44;21.40;35.80
7234;DHT22;3658;47.992;10.158;2023-03-14T04:23:11;21.40;35.80
7234;DHT22;3658;47.992;10.158;2023-03-14T04:25:38;21.40;35.80
7234;DHT22;3658;47.992;10.158;2023-03-14T04:28:06;21.40;35.80
7234;DHT22;3658;47.992;10.158;2023-03-14T04:30:33;21.40;36.40
7234;DHT22;3658;47.992;10.158;2023-03-14T04:33:00;21.40;35.90
7234;DHT22;3658;47.992;10.158;2023-03-14T04:35:27;21.40;35.80
7234;DHT22;3658;47.992;10.158;2023-03-14T04:37:56;21.30;35.70
7234;DHT22;3658;47.992;10.158;2023-03-14T04:40:23;21.40;35.80
7234;DHT22;3658;47.992;10.158;2023-03-14T04:42:51;21.40;35.80
7234;DHT22;3658;47.992;10.158;2023-03-14T04:45:20;21.30;35.70
7234;DHT22;3658;47.992;10.158;2023-03-14T04:47:47;21.40;35.80
7234;DHT22;3658;47.992;10.158;2023-03-14T04:50:13;21.40;35.80
7234;DHT22;3658;47.992;10.158;2023-03-14T04:52:40;21.30;35.70
7234;DHT22;3658;47.992;10.158;2023-03-14T04:55:08;21.30;35.70
7234;DHT22;3658;47.992;10.158;2023-03-14T04:57:34;21.30;35.70
7234;DHT22;3658;47.992;10.158;2023-03-14T05:00:02;21.30;35.70
7234;DHT22;3658;47.992;10.158;2023-03-14T05:02:33;21.30;35.70
7234;DHT22;3658;47.992;10.158;2023-03-14T05:05:00;21.30;35.70
7234;DHT22;3658;47.992;10.158;2023-03-14T05:07:27;21.30;35.70
7234;DHT22;3658;47.992;10.158;2023-03-14T05:09:53;21.30;35.70
7234;DHT22;3658;47.992;10.158;2023-03-14T05:12:21;21.30;36.30
7234;DHT22;3658;47.992;10.158;2023-03-14T05:14:48;21.30;35.70
7234;DHT22;3658;47.992;10.158;2023-03-14T05:17:14;21.30;35.60
7234;DHT22;3658;47.992;10.158;2023-03-14T05:19:43;21.30;35.70
7234;DHT22;3658;47.992;10.158;2023-03-14T05:22:11;21.30;36.30
7234;DHT22;3658;47.992;10.158;2023-03-14T05:24:38;21.30;35.60
7234;DHT22;3658;47.992;10.158;2023-03-14T05:27:05;21.30;35.70
7234;DHT22;3658;47.992;10.158;2023-03-14T05:29:32;21.30;35.70
7234;DHT22;3658;47.992;10.158;2023-03-14T05:31:58;21.30;35.70
7234;DHT22;3658;47.992;10.158;2023-03-14T05:34:26;21.30;35.60
7234;DHT22;3658;47.992;10.158;2023-03-14T05:36:54;21.30;35.60
7234;DHT22;3658;47.992;10.158;2023-03-14T05:39:21;21.30;35.60
7234;DHT22;3658;47.992;10.158;2023-03-14T05:41:48;21.30;35.60
7234;DHT22;3658;47.992;10.158;2023-03-14T05:44:16;21.30;35.60
7234;DHT22;3658;47.992;10.158;2023-03-14T05:46:43;21.30;35.60
7234;DHT22;3658;47.992;10.158;2023-03-14T05:49:10;21.30;35.60
7234;DHT22;3658;47.992;10.158;2023-03-14T05:51:37;21.30;35.70
7234;DHT22;3658;47.992;10.158;2023-03-14T05:54:05;21.30;35.60
7234;DHT22;3658;47.992;10.158;2023-03-14T05:56:32;21.30;35.70
7234;DHT22;3658;47.992;10.158;2023-03-14T05:58:59;21.30;35.60
7234;DHT22;3658;47.992;10.158;2023-03-14T06:01:28;21.30;35.60
7234;DHT22;3658;47.992;10.158;2023-03-14T06:03:55;21.20;35.50
7234;DHT22;3658;47.992;10.158;2023-03-14T06:06:22;21.30;35.60
7234;DHT22;3658;47.992;10.158;2023-03-14T06:08:49;21.30;35.60
7234;DHT22;3658;47.992;10.158;2023-03-14T06:11:17;21.20;35.50
7234;DHT22;3658;47.992;10.158;2023-03-14T06:13:44;21.20;35.50
7234;DHT22;3658;47.992;10.158;2023-03-14T06:16:12;21.20;35.50
7234;DHT22;3658;47.992;10.158;2023-03-14T06:18:39;21.20;35.50
7234;DHT22;3658;47.992;10.158;2023-03-14T06:21:07;21.20;35.50
7234;DHT22;3658;47.992;10.158;2023-03-14T06:23:34;21.20;35.50
7234;DHT22;3658;47.992;10.158;2023-03-14T06:26:01;21.20;35.50
7234;DHT22;3658;47.992;10.158;2023-03-14T06:28:29;21.20;35.50
7234;DHT22;3658;47.992;10.158;2023-03-14T06:30:58;21.20;36.30
7234;DHT22;3658;47.992;10.158;2023-03-14T06:33:25;21.20;35.70
7234;DHT22;3658;47.992;10.158;2023-03-14T06:35:52;21.20;35.70
7234;DHT22;3658;47.992;10.158;2023-03-14T06:38:19;21.20;35.60
7234;DHT22;3658;47.992;10.158;2023-03-14T06:40:46;21.20;35.70
7234;DHT22;3658;47.992;10.158;2023-03-14T06:43:13;21.20;35.60
7234;DHT22;3658;47.992;10.158;2023-03-14T06:45:41;21.20;35.70
7234;DHT22;3658;47.992;10.158;2023-03-14T06:48:08;21.20;35.70
7234;DHT22;3658;47.992;10.158;2023-03-14T06:50:35;21.20;35.70
7234;DHT22;3658;47.992;10.158;2023-03-14T06:53:02;21.20;35.80
7234;DHT22;3658;47.992;10.158;2023-03-14T06:55:29;21.20;35.90
7234;DHT22;3658;47.992;10.158;2023-03-14T06:57:56;21.20;35.90
7234;DHT22;3658;47.992;10.158;2023-03-14T07:00:23;21.20;35.90
7234;DHT22;3658;47.992;10.158;2023-03-14T07:02:51;21.20;35.90
7234;DHT22;3658;47.992;10.158;2023-03-14T07:05:18;21.20;35.90
7234;DHT22;3658;47.992;10.158;2023-03-14T07:07:45;21.20;35.90
7234;DHT22;3658;47.992;10.158;2023-03-14T07:10:12;21.20;37.20
7234;DHT22;3658;47.992;10.158;2023-03-14T07:12:39;21.30;37.70
7234;DHT22;3658;47.992;10.158;2023-03-14T07:15:07;21.30;37.30
7234;DHT22;3658;47.992;10.158;2023-03-14T07:17:34;21.30;37.10
7234;DHT22;3658;47.992;10.158;2023-03-14T07:20:03;21.20;36.80
7234;DHT22;3658;47.992;10.158;2023-03-14T07:22:31;21.20;36.70
7234;DHT22;3658;47.992;10.158;2023-03-14T07:24:58;21.20;36.70
7234;DHT22;3658;47.992;10.158;2023-03-14T07:27:25;21.20;36.70
7234;DHT22;3658;47.992;10.158;2023-03-14T07:29:51;21.20;36.70
7234;DHT22;3658;47.992;10.158;2023-03-14T07:32:18;21.20;36.60
7234;DHT22;3658;47.992;10.158;2023-03-14T07:34:45;21.20;36.60
7234;DHT22;3658;47.992;10.158;2023-03-14T07:37:14;21.20;36.60
7234;DHT22;3658;47.992;10.158;2023-03-14T07:39:41;21.20;36.70
7234;DHT22;3658;47.992;10.158;2023-03-14T07:42:08;21.20;36.60
7234;DHT22;3658;47.992;10.158;2023-03-14T07:44:36;21.20;36.60
7234;DHT22;3658;47.992;10.158;2023-03-14T07:47:03;21.20;36.60
7234;DHT22;3658;47.992;10.158;2023-03-14T07:49:30;21.20;36.60
7234;DHT22;3658;47.992;10.158;2023-03-14T07:51:57;21.20;36.60
7234;DHT22;3658;47.992;10.158;2023-03-14T07:54:26;21.20;36.60
7234;DHT22;3658;47.992;10.158;2023-03-14T07:56:53;21.20;36.60
7234;DHT22;3658;47.992;10.158;2023-03-14T07:59:20;21.20;36.50
7234;DHT22;3658;47.992;10.158;2023-03-14T08:01:47;21.20;36.60
7234;DHT22;3658;47.992;10.158;2023-03-14T08:04:14;21.20;36.50
7234;DHT22;3658;47.992;10.158;2023-03-14T08:06:41;21.20;36.50
7234;DHT22;3658;47.992;10.158;2023-03-14T08:09:08;21.20;36.50
7234;DHT22;3658;47.992;10.158;2023-03-14T08:11:36;21.20;36.50
7234;DHT22;3658;47.992;10.158;2023-03-14T08:14:03;21.20;36.50
7234;DHT22;3658;47.992;10.158;2023-03-14T08:16:30;21.20;36.50
7234;DHT22;3658;47.992;10.158;2023-03-14T08:18:57;21.20;36.50
7234;DHT22;3658;47.992;10.158;2023-03-14T08:21:24;21.20;36.50
7234;DHT22;3658;47.992;10.158;2023-03-14T08:23:51;21.20;36.50
7234;DHT22;3658;47.992;10.158;2023-03-14T08:26:18;21.20;36.50
7234;DHT22;3658;47.992;10.158;2023-03-14T08:28:46;21.20;36.50
7234;DHT22;3658;47.992;10.158;2023-03-14T08:31:13;21.20;36.50
7234;DHT22;3658;47.992;10.158;2023-03-14T08:33:40;21.20;36.50
7234;DHT22;3658;47.992;10.158;2023-03-14T08:36:07;21.10;36.40
7234;DHT22;3658;47.992;10.158;2023-03-14T08:38:35;21.20;36.50
7234;DHT22;3658;47.992;10.158;2023-03-14T08:41:03;21.10;36.40
7234;DHT22;3658;47.992;10.158;2023-03-14T08:43:30;21.20;36.50
7234;DHT22;3658;47.992;10.158;2023-03-14T08:46:00;21.20;36.50
7234;DHT22;3658;47.992;10.158;2023-03-14T08:48:27;21.20;36.40
7234;DHT22;3658;47.992;10.158;2023-03-14T08:50:55;21.20;36.50
7234;DHT22;3658;47.992;10.158;2023-03-14T08:53:22;21.20;36.50
7234;DHT22;3658;47.992;10.158;2023-03-14T08:55:52;21.20;36.40
7234;DHT22;3658;47.992;10.158;2023-03-14T08:58:19;21.20;36.40
7234;DHT22;3658;47.992;10.158;2023-03-14T09:00:46;21.20;36.40
7234;DHT22;3658;47.992;10.158;2023-03-14T09:03:15;21.10;36.40
7234;DHT22;3658;47.992;10.158;2023-03-14T09:05:42;21.20;36.50
7234;DHT22;3658;47.992;10.158;2023-03-14T09:08:09;21.20;36.40
7234;DHT22;3658;47.992;10.158;2023-03-14T09:10:36;21.10;36.40
7234;DHT22;3658;47.992;10.158;2023-03-14T09:13:04;21.10;36.40
7234;DHT22;3658;47.992;10.158;2023-03-14T09:15:30;21.10;36.40
7234;DHT22;3658;47.992;10.158;2023-03-14T09:17:58;21.10;36.40
7234;DHT22;3658;47.992;10.158;2023-03-14T09:20:26;21.10;36.40
7234;DHT22;3658;47.992;10.158;2023-03-14T09:22:53;21.10;36.30
7234;DHT22;3658;47.992;10.158;2023-03-14T09:25:20;21.10;36.30
7234;DHT22;3658;47.992;10.158;2023-03-14T09:27:47;21.10;36.30
7234;DHT22;3658;47.992;10.158;2023-03-14T09:30:14;21.10;36.30
7234;DHT22;3658;47.992;10.158;2023-03-14T09:32:41;21.10;36.30
7234;DHT22;3658;47.992;10.158;2023-03-14T09:35:08;21.10;36.30
7234;DHT22;3658;47.992;10.158;2023-03-14T09:37:37;21.10;36.30
7234;DHT22;3658;47.992;10.158;2023-03-14T09:40:06;21.10;36.40
7234;DHT22;3658;47.992;10.158;2023-03-14T09:42:37;21.10;36.40
7234;DHT22;3658;47.992;10.158;2023-03-14T09:45:11;21.10;36.40
7234;DHT22;3658;47.992;10.158;2023-03-14T09:47:39;21.10;36.30
7234;DHT22;3658;47.992;10.158;2023-03-14T09:50:12;21.10;36.30
7234;DHT22;3658;47.992;10.158;2023-03-14T09:52:44;21.10;36.30
7234;DHT22;3658;47.992;10.158;2023-03-14T09:55:14;21.10;36.30
7234;DHT22;3658;47.992;10.158;2023-03-14T09:57:43;21.10;36.30
7234;DHT22;3658;47.992;10.158;2023-03-14T10:00:16;21.10;36.30
7234;DHT22;3658;47.992;10.158;2023-03-14T10:02:50;21.10;36.30
7234;DHT22;3658;47.992;10.158;2023-03-14T10:05:19;21.10;36.30
7234;DHT22;3658;47.992;10.158;2023-03-14T10:07:47;21.10;36.30
7234;DHT22;3658;47.992;10.158;2023-03-14T10:10:18;21.10;36.30
7234;DHT22;3658;47.992;10.158;2023-03-14T10:12:46;21.10;36.30
7234;DHT22;3658;47.992;10.158;2023-03-14T10:15:15;21.10;36.30
7234;DHT22;3658;47.992;10.158;2023-03-14T10:17:50;21.10;36.90
7234;DHT22;3658;47.992;10.158;2023-03-14T10:20:29;21.10;36.30
7234;DHT22;3658;47.992;10.158;2023-03-14T10:23:00;21.10;36.20
7234;DHT22;3658;47.992;10.158;2023-03-14T10:25:30;21.10;36.30
7234;DHT22;3658;47.992;10.158;2023-03-14T10:27:57;21.10;36.30
7234;DHT22;3658;47.992;10.158;2023-03-14T10:30:30;21.10;36.30
7234;DHT22;3658;47.992;10.158;2023-03-14T10:33:08;21.10;36.30
7234;DHT22;3658;47.992;10.158;2023-03-14T10:35:36;21.10;36.30
7234;DHT22;3658;47.992;10.158;2023-03-14T10:38:05;21.10;36.20
7234;DHT22;3658;47.992;10.158;2023-03-14T10:40:33;21.10;36.20
7234;DHT22;3658;47.992;10.158;2023-03-14T10:43:05;21.10;36.30
7234;DHT22;3658;47.992;10.158;2023-03-14T10:45:35;21.10;36.20
7234;DHT22;3658;47.992;10.158;2023-03-14T10:48:19;21.10;36.20
7234;DHT22;3658;47.992;10.158;2023-03-14T10:50:55;21.10;36.30
7234;DHT22;3658;47.992;10.158;2023-03-14T10:53:25;21.10;36.20
7234;DHT22;3658;47.992;10.158;2023-03-14T10:55:52;21.10;36.20
7234;DHT22;3658;47.992;10.158;2023-03-14T10:58:21;21.10;36.30
7234;DHT22;3658;47.992;10.158;2023-03-14T11:00:54;21.10;36.20
7234;DHT22;3658;47.992;10.158;2023-03-14T11:03:24;21.10;36.20
7234;DHT22;3658;47.992;10.158;2023-03-14T11:05:57;21.10;36.20
7234;DHT22;3658;47.992;10.158;2023-03-14T11:08:29;21.10;36.30
7234;DHT22;3658;47.992;10.158;2023-03-14T11:11:11;21.10;36.20
7234;DHT22;3658;47.992;10.158;2023-03-14T11:13:47;21.10;36.30
7234;DHT22;3658;47.992;10.158;2023-03-14T11:16:22;21.00;36.20
7234;DHT22;3658;47.992;10.158;2023-03-14T11:19:03;21.10;36.30
7234;DHT22;3658;47.992;10.158;2023-03-14T11:21:39;21.10;36.20
7234;DHT22;3658;47.992;10.158;2023-03-14T11:24:35;21.10;36.30
7234;DHT22;3658;47.992;10.158;2023-03-14T11:27:16;21.10;36.30
7234;DHT22;3658;47.992;10.158;2023-03-14T11:29:51;21.00;36.20
7234;DHT22;3658;47.992;10.158;2023-03-14T11:32:26;21.00;36.20
7234;DHT22;3658;47.992;10.158;2023-03-14T11:35:03;21.00;36.20
7234;DHT22;3658;47.992;10.158;2023-03-14T11:37:33;21.00;36.20
7234;DHT22;3658;47.992;10.158;2023-03-14T11:40:06;21.00;36.20
7234;DHT22;3658;47.992;10.158;2023-03-14T11:42:35;21.00;36.20
7234;DHT22;3658;47.992;10.158;2023-03-14T11:45:03;21.00;36.20
7234;DHT22;3658;47.992;10.158;2023-03-14T11:47:34;21.00;36.20
7234;DHT22;3658;47.992;10.158;2023-03-14T11:50:12;21.00;36.20
7234;DHT22;3658;47.992;10.158;2023-03-14T11:52:45;21.00;36.20
7234;DHT22;3658;47.992;10.158;2023-03-14T11:55:18;21.00;36.20
7234;DHT22;3658;47.992;10.158;2023-03-14T11:57:48;21.00;36.20
7234;DHT22;3658;47.992;10.158;2023-03-14T12:00:17;21.00;36.20
7234;DHT22;3658;47.992;10.158;2023-03-14T12:02:50;21.00;36.20
7234;DHT22;3658;47.992;10.158;2023-03-14T12:05:37;21.00;36.20
7234;DHT22;3658;47.992;10.158;2023-03-14T12:11:05;21.00;36.20
7234;DHT22;3658;47.992;10.158;2023-03-14T12:13:37;21.00;36.20
7234;DHT22;3658;47.992;10.158;2023-03-14T12:16:06;21.00;36.20
7234;DHT22;3658;47.992;10.158;2023-03-14T12:18:36;21.00;36.20
7234;DHT22;3658;47.992;10.158;2023-03-14T12:21:06;21.00;36.20
7234;DHT22;3658;47.992;10.158;2023-03-14T12:23:36;21.00;36.20
7234;DHT22;3658;47.992;10.158;2023-03-14T12:26:13;21.00;36.20
7234;DHT22;3658;47.992;10.158;2023-03-14T12:28:43;21.00;36.20
7234;DHT22;3658;47.992;10.158;2023-03-14T12:31:37;21.00;36.20
7234;DHT22;3658;47.992;10.158;2023-03-14T12:34:26;21.00;36.20
7234;DHT22;3658;47.992;10.158;2023-03-14T12:37:10;21.00;36.20
7234;DHT22;3658;47.992;10.158;2023-03-14T12:39:48;21.00;36.20
7234;DHT22;3658;47.992;10.158;2023-03-14T12:42:22;21.00;36.20
7234;DHT22;3658;47.992;10.158;2023-03-14T12:45:15;20.90;36.10
7234;DHT22;3658;47.992;10.158;2023-03-14T12:47:56;21.00;36.20
7234;DHT22;3658;47.992;10.158;2023-03-14T12:50:32;21.00;36.20
7234;DHT22;3658;47.992;10.158;2023-03-14T12:56:20;20.90;36.00
7234;DHT22;3658;47.992;10.158;2023-03-14T12:59:00;20.90;36.70
7234;DHT22;3658;47.992;10.158;2023-03-14T13:01:29;20.90;36.10
7234;DHT22;3658;47.992;10.158;2023-03-14T13:03:57;20.90;36.10
7234;DHT22;3658;47.992;10.158;2023-03-14T13:06:47;20.90;36.10
7234;DHT22;3658;47.992;10.158;2023-03-14T13:09:35;20.90;36.10
7234;DHT22;3658;47.992;10.158;2023-03-14T13:12:07;20.90;36.10
7234;DHT22;3658;47.992;10.158;2023-03-14T13:14:41;20.90;36.10
7234;DHT22;3658;47.992;10.158;2023-03-14T13:17:10;20.90;36.10
7234;DHT22;3658;47.992;10.158;2023-03-14T13:19:38;20.90;36.10
7234;DHT22;3658;47.992;10.158;2023-03-14T13:22:12;20.90;36.10
7234;DHT22;3658;47.992;10.158;2023-03-14T13:24:42;20.90;36.10
7234;DHT22;3658;47.992;10.158;2023-03-14T13:27:17;20.90;36.00
7234;DHT22;3658;47.992;10.158;2023-03-14T13:29:48;20.90;36.00
7234;DHT22;3658;47.992;10.158;2023-03-14T13:32:18;20.90;36.10
7234;DHT22;3658;47.992;10.158;2023-03-14T13:34:47;20.90;36.00
7234;DHT22;3658;47.992;10.158;2023-03-14T13:37:17;20.90;36.10
7234;DHT22;3658;47.992;10.158;2023-03-14T13:39:50;20.90;36.00
7234;DHT22;3658;47.992;10.158;2023-03-14T13:42:18;20.90;36.10
7234;DHT22;3658;47.992;10.158;2023-03-14T13:44:46;20.90;36.00
7234;DHT22;3658;47.992;10.158;2023-03-14T13:47:17;20.90;36.00
7234;DHT22;3658;47.992;10.158;2023-03-14T13:49:45;20.90;36.10
7234;DHT22;3658;47.992;10.158;2023-03-14T13:52:23;20.90;36.10
7234;DHT22;3658;47.992;10.158;2023-03-14T13:54:53;20.90;36.00
7234;DHT22;3658;47.992;10.158;2023-03-14T13:57:20;20.90;36.00
7234;DHT22;3658;47.992;10.158;2023-03-14T14:00:00;20.90;36.10
7234;DHT22;3658;47.992;10.158;2023-03-14T14:02:33;20.90;36.00
7234;DHT22;3658;47.992;10.158;2023-03-14T14:05:02;20.90;36.00
7234;DHT22;3658;47.992;10.158;2023-03-14T14:07:30;20.90;36.00
7234;DHT22;3658;47.992;10.158;2023-03-14T14:09:58;20.90;36.00
7234;DHT22;3658;47.992;10.158;2023-03-14T14:12:30;20.90;36.00
7234;DHT22;3658;47.992;10.158;2023-03-14T14:15:02;20.90;36.00
7234;DHT22;3658;47.992;10.158;2023-03-14T14:17:34;20.90;36.00
7234;DHT22;3658;47.992;10.158;2023-03-14T14:20:05;20.90;36.00
7234;DHT22;3658;47.992;10.158;2023-03-14T14:22:34;20.90;36.00
7234;DHT22;3658;47.992;10.158;2023-03-14T14:25:02;20.90;36.00
7234;DHT22;3658;47.992;10.158;2023-03-14T14:27:33;20.90;36.00
7234;DHT22;3658;47.992;10.158;2023-03-14T14:30:05;20.90;36.00
7234;DHT22;3658;47.992;10.158;2023-03-14T14:32:37;20.90;36.00
7234;DHT22;3658;47.992;10.158;2023-03-14T14:35:05;20.90;36.00
7234;DHT22;3658;47.992;10.158;2023-03-14T14:37:33;20.90;36.00
7234;DHT22;3658;47.992;10.158;2023-03-14T14:40:07;20.90;36.00
7234;DHT22;3658;47.992;10.158;2023-03-14T14:42:40;20.90;36.00
7234;DHT22;3658;47.992;10.158;2023-03-14T14:45:13;20.90;36.00
7234;DHT22;3658;47.992;10.158;2023-03-14T14:47:49;20.90;36.00
7234;DHT22;3658;47.992;10.158;2023-03-14T14:50:25;20.90;36.00
7234;DHT22;3658;47.992;10.158;2023-03-14T14:52:56;20.90;36.10
7234;DHT22;3658;47.992;10.158;2023-03-14T14:55:30;20.90;36.00
7234;DHT22;3658;47.992;10.158;2023-03-14T14:57:58;20.90;36.00
7234;DHT22;3658;47.992;10.158;2023-03-14T15:00:40;20.90;36.00
7234;DHT22;3658;47.992;10.158;2023-03-14T15:03:13;20.90;36.00
7234;DHT22;3658;47.992;10.158;2023-03-14T15:05:41;20.90;36.00
7234;DHT22;3658;47.992;10.158;2023-03-14T15:08:09;20.80;35.90
7234;DHT22;3658;47.992;10.158;2023-03-14T15:10:36;20.90;36.00
7234;DHT22;3658;47.992;10.158;2023-03-14T15:13:03;20.90;36.00
7234;DHT22;3658;47.992;10.158;2023-03-14T15:15:30;20.80;36.00
7234;DHT22;3658;47.992;10.158;2023-03-14T15:17:59;20.90;36.00
7234;DHT22;3658;47.992;10.158;2023-03-14T15:20:26;20.80;35.90
7234;DHT22;3658;47.992;10.158;2023-03-14T15:22:53;20.80;35.90
7234;DHT22;3658;47.992;10.158;2023-03-14T15:25:19;20.80;35.90
7234;DHT22;3658;47.992;10.158;2023-03-14T15:27:46;20.80;35.90
7234;DHT22;3658;47.992;10.158;2023-03-14T15:30:15;20.80;35.90
7234;DHT22;3658;47.992;10.158;2023-03-14T15:32:42;20.80;35.90
7234;DHT22;3658;47.992;10.158;2023-03-14T15:35:11;20.80;35.90
7234;DHT22;3658;47.992;10.158;2023-03-14T15:37:40;20.80;35.90
7234;DHT22;3658;47.992;10.158;2023-03-14T15:40:12;20.80;35.90
7234;DHT22;3658;47.992;10.158;2023-03-14T15:42:39;20.80;35.90
7234;DHT22;3658;47.992;10.158;2023-03-14T15:45:07;20.80;35.90
7234;DHT22;3658;47.992;10.158;2023-03-14T15:47:35;20.80;35.90
7234;DHT22;3658;47.992;10.158;2023-03-14T15:50:02;20.80;35.90
7234;DHT22;3658;47.992;10.158;2023-03-14T15:52:30;20.80;35.90
7234;DHT22;3658;47.992;10.158;2023-03-14T15:54:57;20.80;35.90
7234;DHT22;3658;47.992;10.158;2023-03-14T15:57:24;20.80;35.90
7234;DHT22;3658;47.992;10.158;2023-03-14T15:59:51;20.80;35.90
7234;DHT22;3658;47.992;10.158;2023-03-14T16:02:18;20.80;35.90
7234;DHT22;3658;47.992;10.158;2023-03-14T16:04:45;20.80;35.90